createdAt,value
2017-09-10T00:00:14.920Z,93969.20
2017-09-10T00:02:44.397Z,93971.45
2017-09-10T00:05:14.475Z,93976.73
2017-09-10T00:07:43.831Z,93978.34
2017-09-10T00:10:13.513Z,93976.60
2017-09-10T00:12:43.275Z,93972.36
2017-09-10T00:15:12.628Z,93977.53
2017-09-10T00:17:42.099Z,93981.48
2017-09-10T00:20:12.052Z,93974.81
2017-09-10T00:22:43.927Z,93978.98
2017-09-10T00:25:13.298Z,93981.36
2017-09-10T00:27:42.707Z,93982.87
2017-09-10T00:30:12.047Z,93990.44
2017-09-10T00:32:41.703Z,93981.28
2017-09-10T00:35:11.753Z,93996.34
2017-09-10T00:37:41.192Z,93980.39
2017-09-10T00:40:10.603Z,93986.34
2017-09-10T00:42:40.742Z,93975.88
2017-09-10T00:45:10.227Z,93978.35
2017-09-10T00:47:39.587Z,93975.03
2017-09-10T00:50:09.122Z,93976.47
2017-09-10T00:52:39.010Z,93974.42
2017-09-10T00:55:08.457Z,93979.31
2017-09-10T00:57:37.808Z,93983.87
2017-09-10T01:00:07.602Z,93985.75
2017-09-10T01:02:36.967Z,93997.42
2017-09-10T01:05:06.519Z,93992.98
2017-09-10T01:07:36.143Z,93998.58
2017-09-10T01:10:05.641Z,94005.22
2017-09-10T01:12:34.983Z,93999.62
2017-09-10T01:15:04.433Z,93999.49
2017-09-10T01:17:33.822Z,93998.16
2017-09-10T01:20:03.420Z,94002.27
2017-09-10T01:22:33.319Z,94002.44
2017-09-10T01:25:02.988Z,93997.63
2017-09-10T01:27:32.392Z,94009.48
2017-09-10T01:30:02.055Z,94014.11
2017-09-10T01:32:31.529Z,94016.82
2017-09-10T01:35:00.896Z,94021.22
2017-09-10T01:37:30.552Z,94027.60
2017-09-10T01:40:00.211Z,94029.31
2017-09-10T01:42:29.767Z,94019.44
2017-09-10T01:44:59.463Z,94017.05
2017-09-10T01:47:28.881Z,94016.95
2017-09-10T01:49:58.281Z,94013.11
2017-09-10T01:52:27.730Z,94018.98
2017-09-10T01:54:56.995Z,94019.78
2017-09-10T01:57:26.959Z,94018.05
2017-09-10T01:59:56.249Z,94023.23
2017-09-10T02:02:25.542Z,94026.92
2017-09-10T02:04:54.813Z,94025.48
2017-09-10T02:07:24.082Z,94026.55
2017-09-10T02:09:53.674Z,94030.27
2017-09-10T02:12:22.925Z,94032.53
2017-09-10T02:14:52.149Z,94033.19
2017-09-10T02:17:21.386Z,94037.05
2017-09-10T02:19:51.588Z,94035.58
2017-09-10T02:22:20.849Z,94037.98
2017-09-10T02:24:50.384Z,94034.38
2017-09-10T02:27:19.639Z,94034.24
2017-09-10T02:29:48.919Z,94043.03
2017-09-10T02:32:18.476Z,94039.03
2017-09-10T02:34:47.688Z,94038.75
2017-09-10T02:37:16.938Z,94043.91
2017-09-10T02:39:46.477Z,94045.44
2017-09-10T02:42:16.777Z,94049.27
2017-09-10T02:44:46.068Z,94044.37
2017-09-10T02:47:15.308Z,94041.18
2017-09-10T02:49:44.537Z,94040.23
2017-09-10T02:52:13.853Z,94039.58
2017-09-10T02:54:43.090Z,94038.76
2017-09-10T02:57:12.659Z,94037.05
2017-09-10T02:59:41.905Z,94036.36
2017-09-10T03:02:11.467Z,94043.14
2017-09-10T03:04:41.280Z,94043.28
2017-09-10T03:07:10.619Z,94045.30
2017-09-10T03:09:39.904Z,94044.21
2017-09-10T03:12:09.469Z,94041.93
2017-09-10T03:14:38.775Z,94043.00
2017-09-10T03:17:08.104Z,94040.09
2017-09-10T03:19:37.867Z,94051.80
2017-09-10T03:22:07.120Z,94054.31
2017-09-10T03:24:36.532Z,94052.56
2017-09-10T03:27:06.161Z,94058.55
2017-09-10T03:29:35.429Z,94057.86
2017-09-10T03:32:04.743Z,94059.73
2017-09-10T03:34:34.026Z,94055.48
2017-09-10T03:37:03.377Z,94057.47
2017-09-10T03:39:32.766Z,94061.90
2017-09-10T03:42:02.287Z,94058.02
2017-09-10T03:44:31.560Z,94067.60
2017-09-10T03:47:01.862Z,94071.97
2017-09-10T03:49:31.629Z,94065.19
2017-09-10T03:52:02.601Z,94075.47
2017-09-10T03:54:31.813Z,94078.90
2017-09-10T03:57:03.468Z,94075.03
2017-09-10T03:59:32.758Z,94084.19
2017-09-10T04:02:03.100Z,94090.88
2017-09-10T04:04:32.456Z,94091.15
2017-09-10T04:07:03.885Z,94097.27
2017-09-10T04:09:33.128Z,94093.70
2017-09-10T04:12:04.322Z,94099.69
2017-09-10T04:14:36.157Z,94108.05
2017-09-10T04:17:05.949Z,94103.54
2017-09-10T04:19:35.387Z,94110.45
2017-09-10T04:22:06.026Z,94108.81
2017-09-10T04:24:35.291Z,94104.08
2017-09-10T04:27:04.766Z,94107.52
2017-09-10T04:29:34.105Z,94111.11
2017-09-10T04:32:04.368Z,94109.50
2017-09-10T04:34:33.669Z,94116.41
2017-09-10T04:37:03.330Z,94117.11
2017-09-10T04:39:33.173Z,94116.04
2017-09-10T04:42:02.988Z,94112.30
2017-09-10T04:44:32.357Z,94121.09
2017-09-10T04:47:02.246Z,94127.84
2017-09-10T04:49:31.691Z,94126.27
2017-09-10T04:52:02.785Z,94118.83
2017-09-10T04:54:32.114Z,94121.08
2017-09-10T04:57:02.659Z,94120.41
2017-09-10T04:59:32.393Z,94130.91
2017-09-10T05:02:04.202Z,94133.72
2017-09-10T05:04:33.957Z,94137.16
2017-09-10T05:07:04.333Z,94142.44
2017-09-10T05:09:33.647Z,94140.75
2017-09-10T05:12:03.324Z,94141.44
2017-09-10T05:14:34.374Z,94143.42
2017-09-10T05:17:04.918Z,94138.66
2017-09-10T05:19:35.041Z,94137.98
2017-09-10T05:22:07.417Z,94145.41
2017-09-10T05:24:36.723Z,94143.04
2017-09-10T05:27:07.286Z,94143.99
2017-09-10T05:29:37.045Z,94149.98
2017-09-10T05:32:07.164Z,94155.94
2017-09-10T05:34:37.309Z,94160.33
2017-09-10T05:37:06.765Z,94175.36
2017-09-10T05:39:36.041Z,94172.44
2017-09-10T05:42:07.850Z,94167.92
2017-09-10T05:44:37.699Z,94176.47
2017-09-10T05:47:07.395Z,94172.19
2017-09-10T05:49:36.849Z,94169.52
2017-09-10T05:52:06.081Z,94171.36
2017-09-10T05:54:35.572Z,94175.63
2017-09-10T05:57:06.490Z,94172.00
2017-09-10T05:59:35.904Z,94183.71
2017-09-10T06:02:06.878Z,94189.28
2017-09-10T06:04:36.214Z,94188.89
2017-09-10T06:07:06.254Z,94185.16
2017-09-10T06:09:35.658Z,94187.03
2017-09-10T06:12:08.286Z,94187.73
2017-09-10T06:14:37.800Z,94186.49
2017-09-10T06:17:07.381Z,94195.45
2017-09-10T06:19:37.275Z,94196.53
2017-09-10T06:22:06.922Z,94193.45
2017-09-10T06:24:36.531Z,94193.57
2017-09-10T06:27:06.393Z,94194.08
2017-09-10T06:29:35.765Z,94202.22
2017-09-10T06:32:06.430Z,94203.66
2017-09-10T06:34:37.013Z,94202.55
2017-09-10T06:37:06.351Z,94205.77
2017-09-10T06:39:35.988Z,94203.54
2017-09-10T06:42:07.345Z,94211.53
2017-09-10T06:44:36.896Z,94207.01
2017-09-10T06:47:07.969Z,94212.61
2017-09-10T06:49:37.883Z,94207.32
2017-09-10T06:52:07.837Z,94202.13
2017-09-10T06:54:37.492Z,94202.38
2017-09-10T06:57:07.301Z,94205.30
2017-09-10T06:59:36.540Z,94206.48
2017-09-10T07:02:07.883Z,94210.61
2017-09-10T07:04:37.312Z,94208.34
2017-09-10T07:07:06.636Z,94213.09
2017-09-10T07:09:35.893Z,94216.81
2017-09-10T07:12:07.952Z,94220.40
2017-09-10T07:14:37.178Z,94222.06
2017-09-10T07:17:07.745Z,94222.58
2017-09-10T07:19:37.574Z,94223.55
2017-09-10T07:22:07.174Z,94222.70
2017-09-10T07:24:36.890Z,94223.98
2017-09-10T07:27:12.913Z,94219.58
2017-09-10T07:29:42.508Z,94222.87
2017-09-10T07:32:12.053Z,94228.28
2017-09-10T07:34:41.418Z,94228.48
2017-09-10T07:37:10.693Z,94233.23
2017-09-10T07:39:40.412Z,94227.90
2017-09-10T07:42:10.561Z,94229.91
2017-09-10T07:44:41.403Z,94231.34
2017-09-10T07:47:12.653Z,94234.45
2017-09-10T07:49:42.910Z,94231.77
2017-09-10T07:52:12.945Z,94236.71
2017-09-10T07:54:42.549Z,94242.12
2017-09-10T07:57:11.833Z,94244.42
2017-09-10T07:59:41.757Z,94238.44
2017-09-10T08:02:13.910Z,94243.36
2017-09-10T08:04:43.209Z,94235.94
2017-09-10T08:07:12.849Z,94237.41
2017-09-10T08:09:42.551Z,94239.35
2017-09-10T08:12:12.106Z,94244.69
2017-09-10T08:14:42.465Z,94246.31
2017-09-10T08:17:13.838Z,94253.52
2017-09-10T08:19:44.730Z,94251.47
2017-09-10T08:22:14.725Z,94248.79
2017-09-10T08:24:44.459Z,94252.43
2017-09-10T08:27:14.348Z,94255.56
2017-09-10T08:29:44.952Z,94258.60
2017-09-10T08:32:14.545Z,94260.31
2017-09-10T08:34:43.865Z,94263.07
2017-09-10T08:37:13.265Z,94263.93
2017-09-10T08:39:43.077Z,94264.88
2017-09-10T08:42:13.066Z,94265.20
2017-09-10T08:44:42.423Z,94266.84
2017-09-10T08:47:11.970Z,94266.28
2017-09-10T08:49:41.305Z,94272.31
2017-09-10T08:52:11.439Z,94273.40
2017-09-10T08:54:41.697Z,94280.92
2017-09-10T08:57:11.402Z,94278.25
2017-09-10T08:59:40.674Z,94284.91
2017-09-10T09:02:10.197Z,94286.79
2017-09-10T09:04:39.524Z,94283.79
2017-09-10T09:07:09.140Z,94284.89
2017-09-10T09:09:38.788Z,94293.00
2017-09-10T09:12:08.686Z,94292.81
2017-09-10T09:14:38.044Z,94296.06
2017-09-10T09:17:07.665Z,94302.52
2017-09-10T09:19:37.141Z,94294.50
2017-09-10T09:22:07.113Z,94301.30
2017-09-10T09:24:37.695Z,94289.72
2017-09-10T09:27:06.930Z,94290.63
2017-09-10T09:29:36.189Z,94288.30
2017-09-10T09:32:05.782Z,94291.55
2017-09-10T09:34:35.069Z,94285.39
2017-09-10T09:37:04.390Z,94289.02
2017-09-10T09:39:35.821Z,94278.61
2017-09-10T09:42:08.434Z,94284.05
2017-09-10T09:44:37.858Z,94274.80
2017-09-10T09:47:07.355Z,94265.58
2017-09-10T09:49:36.949Z,94265.41
2017-09-10T09:52:07.325Z,94262.66
2017-09-10T09:54:39.811Z,94259.61
2017-09-10T09:57:12.572Z,94263.09
2017-09-10T09:59:42.846Z,94272.61
2017-09-10T10:02:12.441Z,94264.59
2017-09-10T10:04:41.996Z,94272.17
2017-09-10T10:07:11.237Z,94273.69
2017-09-10T10:09:40.490Z,94271.41
2017-09-10T10:12:10.066Z,94276.64
2017-09-10T10:14:39.487Z,94269.13
2017-09-10T10:17:12.425Z,94262.77
2017-09-10T10:19:43.356Z,94261.64
2017-09-10T10:22:13.753Z,94272.17
2017-09-10T10:24:43.249Z,94272.70
2017-09-10T10:27:13.193Z,94273.44
2017-09-10T10:29:42.870Z,94270.88
2017-09-10T10:32:12.244Z,94276.37
2017-09-10T10:34:42.233Z,94277.14
2017-09-10T10:37:16.301Z,94280.66
2017-09-10T10:39:46.485Z,94275.74
2017-09-10T10:42:15.925Z,94278.66
2017-09-10T10:44:47.095Z,94278.24
2017-09-10T10:47:19.173Z,94280.86
2017-09-10T10:49:48.725Z,94278.41
2017-09-10T10:52:18.335Z,94279.88
2017-09-10T10:54:52.886Z,94276.84
2017-09-10T10:57:22.669Z,94282.52
2017-09-10T10:59:51.926Z,94282.59
2017-09-10T11:02:22.514Z,94291.48
2017-09-10T11:04:52.019Z,94294.13
2017-09-10T11:07:22.539Z,94289.22
2017-09-10T11:09:52.191Z,94291.89
2017-09-10T11:12:23.344Z,94291.79
2017-09-10T11:14:55.355Z,94289.80
2017-09-10T11:17:25.213Z,94292.79
2017-09-10T11:19:55.030Z,94291.09
2017-09-10T11:22:26.712Z,94294.51
2017-09-10T11:24:56.898Z,94304.50
2017-09-10T11:27:27.162Z,94295.05
2017-09-10T11:29:58.024Z,94289.84
2017-09-10T11:32:27.329Z,94292.09
2017-09-10T11:34:57.706Z,94290.70
2017-09-10T11:37:27.309Z,94285.54
2017-09-10T11:39:57.197Z,94276.77
2017-09-10T11:42:26.514Z,94272.65
2017-09-10T11:44:56.066Z,94271.38
2017-09-10T11:47:25.838Z,94274.48
2017-09-10T11:49:55.104Z,94276.14
2017-09-10T11:52:24.875Z,94278.09
2017-09-10T11:54:55.133Z,94274.59
2017-09-10T11:57:25.210Z,94262.13
2017-09-10T12:02:21.842Z,94263.23
2017-09-10T12:04:51.303Z,94256.26
2017-09-10T12:07:21.061Z,94254.52
2017-09-10T12:09:55.968Z,94251.44
2017-09-10T12:12:25.438Z,94246.34
2017-09-10T12:14:54.662Z,94250.05
2017-09-10T12:17:24.926Z,94249.53
2017-09-10T12:19:54.244Z,94253.59
2017-09-10T12:22:23.483Z,94247.63
2017-09-10T12:24:53.093Z,94244.27
2017-09-10T12:27:22.400Z,94249.96
2017-09-10T12:29:53.679Z,94243.48
2017-09-10T12:32:23.391Z,94247.95
2017-09-10T12:34:52.961Z,94249.69
2017-09-10T12:37:22.373Z,94246.25
2017-09-10T12:39:51.990Z,94245.15
2017-09-10T12:42:22.251Z,94241.45
2017-09-10T12:44:52.657Z,94247.92
2017-09-10T12:47:23.174Z,94243.75
2017-09-10T12:49:52.701Z,94241.25
2017-09-10T12:52:22.067Z,94239.30
2017-09-10T12:54:51.750Z,94235.91
2017-09-10T12:57:21.414Z,94234.59
2017-09-10T12:59:53.077Z,94240.95
2017-09-10T13:02:23.216Z,94250.45
2017-09-10T13:04:54.742Z,94251.02
2017-09-10T13:07:26.250Z,94251.56
2017-09-10T13:09:58.211Z,94248.19
2017-09-10T13:12:29.346Z,94255.72
2017-09-10T13:14:58.669Z,94252.67
2017-09-10T13:17:28.541Z,94254.33
2017-09-10T13:19:58.993Z,94251.34
2017-09-10T13:22:28.545Z,94254.56
2017-09-10T13:24:58.054Z,94255.64
2017-09-10T13:27:27.605Z,94268.19
2017-09-10T13:30:03.233Z,94257.55
2017-09-10T13:32:36.335Z,94259.13
2017-09-10T13:35:12.614Z,94250.98
2017-09-10T13:37:43.221Z,94253.97
2017-09-10T13:40:17.270Z,94259.34
2017-09-10T13:42:47.616Z,94257.17
2017-09-10T13:45:17.062Z,94261.37
2017-09-10T13:47:47.158Z,94269.22
2017-09-10T13:50:16.430Z,94266.34
2017-09-10T13:52:48.094Z,94265.66
2017-09-10T13:55:19.086Z,94253.91
2017-09-10T13:57:49.696Z,94262.00
2017-09-10T14:00:19.226Z,94258.38
2017-09-10T14:02:48.764Z,94252.70
2017-09-10T14:05:21.348Z,94246.06
2017-09-10T14:07:52.645Z,94246.42
2017-09-10T14:10:22.482Z,94241.80
2017-09-10T14:12:51.897Z,94245.77
2017-09-10T14:15:21.220Z,94255.14
2017-09-10T14:17:51.827Z,94261.87
2017-09-10T14:20:25.565Z,94260.81
2017-09-10T14:22:55.120Z,94257.82
2017-09-10T14:25:24.345Z,94263.25
2017-09-10T14:27:53.572Z,94257.77
2017-09-10T14:30:25.482Z,94259.63
2017-09-10T14:32:54.825Z,94257.11
2017-09-10T14:35:29.898Z,94252.20
2017-09-10T14:38:00.443Z,94255.06
2017-09-10T14:40:29.780Z,94250.84
2017-09-10T14:43:08.489Z,94249.55
2017-09-10T14:45:46.648Z,94246.06
2017-09-10T14:48:17.345Z,94238.37
2017-09-10T14:50:47.589Z,94230.73
2017-09-10T14:53:20.033Z,94240.50
2017-09-10T14:55:56.725Z,94231.96
2017-09-10T14:58:26.411Z,94239.27
2017-09-10T15:00:56.924Z,94238.36
2017-09-10T15:03:26.358Z,94240.69
2017-09-10T15:05:57.641Z,94231.13
2017-09-10T15:08:27.627Z,94235.89
2017-09-10T15:10:57.382Z,94232.40
2017-09-10T15:13:27.346Z,94230.16
2017-09-10T15:15:58.297Z,94234.08
2017-09-10T15:18:29.107Z,94231.66
2017-09-10T15:21:00.919Z,94237.67
2017-09-10T15:23:32.039Z,94235.81
2017-09-10T15:26:13.085Z,94233.94
2017-09-10T15:28:44.123Z,94228.51
2017-09-10T15:31:13.950Z,94236.66
2017-09-10T15:33:45.606Z,94225.45
2017-09-10T15:36:15.529Z,94233.55
2017-09-10T15:38:49.543Z,94230.50
2017-09-10T15:41:19.121Z,94228.27
2017-09-10T15:43:53.960Z,94228.14
2017-09-10T15:46:23.890Z,94224.12
2017-09-10T15:48:54.369Z,94209.81
2017-09-10T15:51:25.068Z,94200.97
2017-09-10T15:53:54.786Z,94211.35
2017-09-10T15:57:55.378Z,94202.22
2017-09-10T16:00:25.434Z,94207.94
2017-09-10T16:02:56.361Z,94205.69
2017-09-10T16:05:28.582Z,94208.03
2017-09-10T16:12:49.122Z,94201.50
2017-09-10T16:15:25.258Z,94205.63
2017-09-10T16:17:56.314Z,94200.03
2017-09-10T16:20:26.272Z,94195.33
2017-09-10T16:22:55.910Z,94183.70
2017-09-10T16:25:25.277Z,94193.00
2017-09-10T16:27:56.722Z,94185.86
2017-09-10T16:30:26.610Z,94182.89
2017-09-10T16:32:56.797Z,94177.72
2017-09-10T16:35:27.588Z,94179.83
2017-09-10T16:37:58.056Z,94178.33
2017-09-10T16:40:28.934Z,94173.47
2017-09-10T16:42:59.178Z,94180.71
2017-09-10T16:45:30.113Z,94169.71
2017-09-10T16:48:02.130Z,94174.53
2017-09-10T16:50:31.965Z,94174.22
2017-09-10T16:53:01.855Z,94170.67
2017-09-10T16:55:31.898Z,94169.75
2017-09-10T16:58:02.198Z,94165.07
2017-09-10T17:00:31.884Z,94164.48
2017-09-10T17:03:03.279Z,94156.76
2017-09-10T17:05:32.917Z,94166.67
2017-09-10T17:08:03.193Z,94160.95
2017-09-10T17:10:33.024Z,94160.42
2017-09-10T17:13:02.635Z,94157.93
2017-09-10T17:15:32.225Z,94154.88
2017-09-10T17:18:06.238Z,94151.91
2017-09-10T17:20:37.345Z,94152.41
2017-09-10T17:23:07.909Z,94145.58
2017-09-10T17:25:37.898Z,94156.02
2017-09-10T17:28:07.209Z,94154.30
2017-09-10T17:30:37.150Z,94148.49
2017-09-10T17:33:06.413Z,94155.19
2017-09-10T17:35:37.556Z,94159.80
2017-09-10T17:38:07.078Z,94157.08
2017-09-10T17:40:37.502Z,94149.66
2017-09-10T17:43:11.457Z,94154.54
2017-09-10T17:45:42.038Z,94150.14
2017-09-10T17:48:11.850Z,94155.20
2017-09-10T17:50:41.654Z,94150.69
2017-09-10T17:53:12.374Z,94146.75
2017-09-10T17:55:41.828Z,94150.17
2017-09-10T17:58:11.158Z,94152.84
2017-09-10T18:00:40.492Z,94148.15
2017-09-10T18:03:10.073Z,94152.23
2017-09-10T18:05:40.126Z,94149.46
2017-09-10T18:08:09.403Z,94150.46
2017-09-10T18:10:38.647Z,94145.83
2017-09-10T18:13:09.312Z,94150.55
2017-09-10T18:15:40.049Z,94136.71
2017-09-10T18:18:10.221Z,94146.36
2017-09-10T18:20:40.309Z,94144.52
2017-09-10T18:23:10.448Z,94142.53
2017-09-10T18:25:40.554Z,94138.95
2017-09-10T18:28:09.798Z,94156.70
2017-09-10T18:30:39.488Z,94149.16
2017-09-10T18:33:10.402Z,94150.38
2017-09-10T18:35:40.067Z,94151.42
2017-09-10T18:38:09.724Z,94144.14
2017-09-10T18:40:39.034Z,94144.81
2017-09-10T18:43:13.540Z,94143.31
2017-09-10T18:45:44.801Z,94145.47
2017-09-10T18:48:15.287Z,94142.95
2017-09-10T18:50:45.709Z,94137.97
2017-09-10T18:53:15.050Z,94139.72
2017-09-10T18:55:44.737Z,94132.55
2017-09-10T18:58:14.734Z,94142.43
2017-09-10T19:00:44.126Z,94140.00
2017-09-10T19:03:15.037Z,94137.23
2017-09-10T19:05:44.801Z,94135.39
2017-09-10T19:08:15.534Z,94133.53
2017-09-10T19:10:45.833Z,94135.55
2017-09-10T19:13:15.526Z,94137.22
2017-09-10T19:15:45.488Z,94142.91
2017-09-10T19:18:15.039Z,94131.02
2017-09-10T19:20:46.985Z,94133.29
2017-09-10T19:23:17.013Z,94130.89
2017-09-10T19:25:48.008Z,94130.48
2017-09-10T19:28:18.033Z,94130.62
2017-09-10T19:30:48.221Z,94126.43
2017-09-10T19:33:17.667Z,94125.41
2017-09-10T19:35:47.230Z,94119.77
2017-09-10T19:38:17.608Z,94120.95
2017-09-10T19:40:46.913Z,94117.37
2017-09-10T19:43:16.646Z,94114.50
2017-09-10T19:45:47.286Z,94114.94
2017-09-10T19:48:19.977Z,94108.20
2017-09-10T19:50:49.762Z,94106.69
2017-09-10T19:53:20.195Z,94103.72
2017-09-10T19:55:53.927Z,94100.30
2017-09-10T19:58:23.309Z,94099.78
2017-09-10T20:00:52.706Z,94098.42
2017-09-10T20:03:22.450Z,94092.98
2017-09-10T20:05:52.139Z,94095.76
2017-09-10T20:08:22.194Z,94089.67
2017-09-10T20:10:53.298Z,94086.75
2017-09-10T20:13:22.633Z,94089.98
2017-09-10T20:15:55.490Z,94083.30
2017-09-10T20:18:24.936Z,94090.37
2017-09-10T20:20:54.990Z,94089.54
2017-09-10T20:23:25.060Z,94082.24
2017-09-10T20:25:54.956Z,94080.98
2017-09-10T20:28:26.230Z,94080.95
2017-09-10T20:30:55.898Z,94071.31
2017-09-10T20:33:25.574Z,94068.84
2017-09-10T20:35:55.077Z,94065.47
2017-09-10T20:38:32.054Z,94058.73
2017-09-10T20:41:02.801Z,94064.17
2017-09-10T20:43:34.320Z,94066.27
2017-09-10T20:46:09.702Z,94064.64
2017-09-10T20:48:39.993Z,94064.55
2017-09-10T20:51:10.545Z,94073.64
2017-09-10T20:53:39.820Z,94065.38
2017-09-10T20:56:09.930Z,94064.37
2017-09-10T20:58:39.836Z,94058.06
2017-09-10T21:01:10.297Z,94057.28
2017-09-10T21:03:39.526Z,94049.53
2017-09-10T21:06:12.258Z,94052.88
2017-09-10T21:08:41.958Z,94050.39
2017-09-10T21:11:11.215Z,94038.28
2017-09-10T21:13:41.652Z,94031.96
2017-09-10T21:16:11.444Z,94022.62
2017-09-10T21:18:41.106Z,94021.88
2017-09-10T21:21:11.231Z,94017.23
2017-09-10T21:23:40.506Z,94011.64
2017-09-10T21:26:11.521Z,94006.17
2017-09-10T21:28:43.681Z,94013.31
2017-09-10T21:31:13.093Z,94012.48
2017-09-10T21:33:43.290Z,94005.86
2017-09-10T21:36:14.314Z,94000.09
2017-09-10T21:38:43.582Z,94007.09
2017-09-10T21:41:15.078Z,94004.94
2017-09-10T21:43:45.662Z,94004.99
2017-09-10T21:46:15.421Z,94003.95
2017-09-10T21:48:44.889Z,94005.55
2017-09-10T21:51:14.313Z,93999.88
2017-09-10T21:53:43.665Z,94002.69
2017-09-10T21:56:13.964Z,94001.25
2017-09-10T21:58:43.312Z,93993.73
2017-09-10T22:01:14.213Z,93996.34
2017-09-10T22:03:43.999Z,93990.19
2017-09-10T22:06:14.243Z,93986.71
2017-09-10T22:08:43.869Z,93985.14
2017-09-10T22:11:13.477Z,93989.01
2017-09-10T22:13:42.733Z,93989.14
2017-09-10T22:16:12.610Z,93992.63
2017-09-10T22:18:42.226Z,93992.12
2017-09-10T22:21:14.437Z,93988.20
2017-09-10T22:23:45.813Z,93980.97
2017-09-10T22:26:17.601Z,93974.55
2017-09-10T22:28:48.253Z,93978.23
2017-09-10T22:31:19.121Z,93974.86
2017-09-10T22:33:48.361Z,93971.57
2017-09-10T22:36:17.722Z,93968.12
2017-09-10T22:38:49.289Z,93965.52
2017-09-10T22:41:18.534Z,93961.92
2017-09-10T22:43:48.289Z,93955.14
2017-09-10T22:46:18.486Z,93949.73
2017-09-10T22:48:49.000Z,93950.58
2017-09-10T22:51:20.873Z,93948.98
2017-09-10T22:53:50.250Z,93941.44
2017-09-10T22:56:21.136Z,93938.25
2017-09-10T22:58:50.409Z,93933.12
2017-09-10T23:01:21.169Z,93930.23
2017-09-10T23:03:51.161Z,93924.55
2017-09-10T23:06:24.137Z,93927.43
2017-09-10T23:08:54.141Z,93926.02
2017-09-10T23:11:23.903Z,93926.87
2017-09-10T23:13:53.310Z,93926.14
2017-09-10T23:16:23.244Z,93929.36
2017-09-10T23:18:52.564Z,93921.10
2017-09-10T23:21:23.225Z,93931.23
2017-09-10T23:23:53.560Z,93927.12
2017-09-10T23:26:27.214Z,93926.27
2017-09-10T23:28:59.886Z,93928.91
2017-09-10T23:31:29.206Z,93929.88
2017-09-10T23:34:01.657Z,93934.64
2017-09-10T23:36:32.305Z,93929.17
2017-09-10T23:39:02.289Z,93926.08
2017-09-10T23:41:31.975Z,93911.08
2017-09-10T23:44:02.774Z,93916.28
2017-09-10T23:46:33.066Z,93903.73
2017-09-10T23:49:02.505Z,93904.16
2017-09-10T23:51:32.590Z,93898.95
2017-09-10T23:54:04.099Z,93898.77
2017-09-10T23:56:33.509Z,93893.78
2017-09-10T23:59:04.840Z,93894.34
